sensor_id;sensor_type;location;lat;lon;timestamp;temperature;humidity
19968;DHT22;10145;49.152;9.282;2023-04-24T00:02:13;10.80;99.90
19968;DHT22;10145;49.152;9.282;2023-04-24T00:04:39;10.80;99.90
19968;DHT22;10145;49.152;9.282;2023-04-24T00:07:10;10.80;99.90
19968;DHT22;10145;49.152;9.282;2023-04-24T00:09:36;10.80;99.90
19968;DHT22;10145;49.152;9.282;2023-04-24T00:12:01;10.90;99.90
19968;DHT22;10145;49.152;9.282;2023-04-24T00:14:30;10.90;99.90
19968;DHT22;10145;49.152;9.282;2023-04-24T00:16:55;10.90;99.90
19968;DHT22;10145;49.152;9.282;2023-04-24T00:19:21;10.90;99.90
19968;DHT22;10145;49.152;9.282;2023-04-24T00:21:47;10.90;99.90
19968;DHT22;10145;49.152;9.282;2023-04-24T00:24:15;10.90;99.90
19968;DHT22;10145;49.152;9.282;2023-04-24T00:26:41;11.00;99.90
19968;DHT22;10145;49.152;9.282;2023-04-24T00:29:07;11.00;99.90
19968;DHT22;10145;49.152;9.282;2023-04-24T00:31:32;11.00;99.90
19968;DHT22;10145;49.152;9.282;2023-04-24T00:34:00;11.00;99.90
19968;DHT22;10145;49.152;9.282;2023-04-24T00:36:26;10.90;99.90
19968;DHT22;10145;49.152;9.282;2023-04-24T00:38:52;10.90;99.90
19968;DHT22;10145;49.152;9.282;2023-04-24T00:41:18;10.90;99.90
19968;DHT22;10145;49.152;9.282;2023-04-24T00:43:44;10.90;99.90
19968;DHT22;10145;49.152;9.282;2023-04-24T00:46:10;11.00;99.90
19968;DHT22;10145;49.152;9.282;2023-04-24T00:48:38;10.90;99.90
19968;DHT22;10145;49.152;9.282;2023-04-24T00:51:04;10.90;99.90
19968;DHT22;10145;49.152;9.282;2023-04-24T00:53:30;10.90;99.90
19968;DHT22;10145;49.152;9.282;2023-04-24T00:55:55;10.90;99.90
19968;DHT22;10145;49.152;9.282;2023-04-24T00:58:22;10.90;99.90
19968;DHT22;10145;49.152;9.282;2023-04-24T01:00:49;10.90;99.90
19968;DHT22;10145;49.152;9.282;2023-04-24T01:03:22;10.90;99.90
19968;DHT22;10145;49.152;9.282;2023-04-24T01:05:49;10.90;99.90
19968;DHT22;10145;49.152;9.282;2023-04-24T01:08:15;10.90;99.90
19968;DHT22;10145;49.152;9.282;2023-04-24T01:10:41;10.90;99.90
19968;DHT22;10145;49.152;9.282;2023-04-24T01:13:10;10.90;99.90
19968;DHT22;10145;49.152;9.282;2023-04-24T01:15:35;10.90;99.90
19968;DHT22;10145;49.152;9.282;2023-04-24T01:18:01;10.90;99.90
19968;DHT22;10145;49.152;9.282;2023-04-24T01:20:27;10.90;99.90
19968;DHT22;10145;49.152;9.282;2023-04-24T01:22:54;10.90;99.90
19968;DHT22;10145;49.152;9.282;2023-04-24T01:25:20;11.00;99.90
19968;DHT22;10145;49.152;9.282;2023-04-24T01:27:45;11.00;99.90
19968;DHT22;10145;49.152;9.282;2023-04-24T01:30:12;11.00;99.90
19968;DHT22;10145;49.152;9.282;2023-04-24T01:32:38;11.00;99.90
19968;DHT22;10145;49.152;9.282;2023-04-24T01:35:04;11.00;99.90
19968;DHT22;10145;49.152;9.282;2023-04-24T01:37:30;11.10;99.90
19968;DHT22;10145;49.152;9.282;2023-04-24T01:39:57;11.10;99.90
19968;DHT22;10145;49.152;9.282;2023-04-24T01:42:23;11.00;99.90
19968;DHT22;10145;49.152;9.282;2023-04-24T01:44:49;11.00;99.90
19968;DHT22;10145;49.152;9.282;2023-04-24T01:47:15;10.90;99.90
19968;DHT22;10145;49.152;9.282;2023-04-24T01:49:41;10.80;99.90
19968;DHT22;10145;49.152;9.282;2023-04-24T01:52:06;10.80;99.90
19968;DHT22;10145;49.152;9.282;2023-04-24T01:54:32;10.70;99.90
19968;DHT22;10145;49.152;9.282;2023-04-24T01:56:57;10.70;99.90
19968;DHT22;10145;49.152;9.282;2023-04-24T01:59:23;10.70;99.90
19968;DHT22;10145;49.152;9.282;2023-04-24T02:01:50;10.60;99.90
19968;DHT22;10145;49.152;9.282;2023-04-24T02:04:15;10.70;99.90
19968;DHT22;10145;49.152;9.282;2023-04-24T02:06:41;10.70;99.90
19968;DHT22;10145;49.152;9.282;2023-04-24T02:09:07;10.70;99.90
19968;DHT22;10145;49.152;9.282;2023-04-24T02:11:33;10.70;99.90
19968;DHT22;10145;49.152;9.282;2023-04-24T02:13:58;10.70;99.90
19968;DHT22;10145;49.152;9.282;2023-04-24T02:16:24;10.70;99.90
19968;DHT22;10145;49.152;9.282;2023-04-24T02:18:50;10.70;99.90
19968;DHT22;10145;49.152;9.282;2023-04-24T02:21:15;10.70;99.90
19968;DHT22;10145;49.152;9.282;2023-04-24T02:23:41;10.80;99.90
19968;DHT22;10145;49.152;9.282;2023-04-24T02:26:06;10.80;99.90
19968;DHT22;10145;49.152;9.282;2023-04-24T02:28:32;10.80;99.90
19968;DHT22;10145;49.152;9.282;2023-04-24T02:30:57;10.80;99.90
19968;DHT22;10145;49.152;9.282;2023-04-24T02:33:23;10.90;99.90
19968;DHT22;10145;49.152;9.282;2023-04-24T02:35:49;10.90;99.90
19968;DHT22;10145;49.152;9.282;2023-04-24T02:38:15;10.90;99.90
19968;DHT22;10145;49.152;9.282;2023-04-24T02:40:40;11.00;99.90
19968;DHT22;10145;49.152;9.282;2023-04-24T02:43:06;11.00;99.90
19968;DHT22;10145;49.152;9.282;2023-04-24T02:45:31;11.00;99.90
19968;DHT22;10145;49.152;9.282;2023-04-24T02:47:57;11.10;99.90
19968;DHT22;10145;49.152;9.282;2023-04-24T02:50:23;11.10;99.90
19968;DHT22;10145;49.152;9.282;2023-04-24T02:52:48;11.10;99.90
19968;DHT22;10145;49.152;9.282;2023-04-24T02:55:14;11.10;99.90
19968;DHT22;10145;49.152;9.282;2023-04-24T02:57:39;11.00;99.90
19968;DHT22;10145;49.152;9.282;2023-04-24T03:00:05;10.90;99.90
19968;DHT22;10145;49.152;9.282;2023-04-24T03:02:32;10.80;99.90
19968;DHT22;10145;49.152;9.282;2023-04-24T03:04:58;10.80;99.90
19968;DHT22;10145;49.152;9.282;2023-04-24T03:07:23;10.70;99.90
19968;DHT22;10145;49.152;9.282;2023-04-24T03:09:49;10.80;99.90
19968;DHT22;10145;49.152;9.282;2023-04-24T03:12:15;10.50;99.90
19968;DHT22;10145;49.152;9.282;2023-04-24T03:14:43;10.50;99.90
19968;DHT22;10145;49.152;9.282;2023-04-24T03:17:08;10.60;99.90
19968;DHT22;10145;49.152;9.282;2023-04-24T03:19:34;10.70;99.90
19968;DHT22;10145;49.152;9.282;2023-04-24T03:22:01;10.80;99.90
19968;DHT22;10145;49.152;9.282;2023-04-24T03:24:27;10.90;99.90
19968;DHT22;10145;49.152;9.282;2023-04-24T03:26:53;10.90;99.90
19968;DHT22;10145;49.152;9.282;2023-04-24T03:29:19;11.00;99.90
19968;DHT22;10145;49.152;9.282;2023-04-24T03:31:44;11.00;99.90
19968;DHT22;10145;49.152;9.282;2023-04-24T03:34:10;11.10;99.90
19968;DHT22;10145;49.152;9.282;2023-04-24T03:36:36;11.10;99.90
19968;DHT22;10145;49.152;9.282;2023-04-24T03:39:01;11.10;99.90
19968;DHT22;10145;49.152;9.282;2023-04-24T03:41:27;11.10;99.90
19968;DHT22;10145;49.152;9.282;2023-04-24T03:43:52;11.20;99.90
19968;DHT22;10145;49.152;9.282;2023-04-24T03:46:18;11.20;99.90
19968;DHT22;10145;49.152;9.282;2023-04-24T03:48:43;11.20;99.90
19968;DHT22;10145;49.152;9.282;2023-04-24T03:51:09;11.20;99.90
19968;DHT22;10145;49.152;9.282;2023-04-24T03:53:34;11.20;99.90
19968;DHT22;10145;49.152;9.282;2023-04-24T03:56:00;11.20;99.90
19968;DHT22;10145;49.152;9.282;2023-04-24T03:58:25;11.20;99.90
19968;DHT22;10145;49.152;9.282;2023-04-24T04:00:51;11.20;99.90
19968;DHT22;10145;49.152;9.282;2023-04-24T04:03:16;11.20;99.90
19968;DHT22;10145;49.152;9.282;2023-04-24T04:05:42;11.20;99.90
19968;DHT22;10145;49.152;9.282;2023-04-24T04:08:07;11.20;99.90
19968;DHT22;10145;49.152;9.282;2023-04-24T04:10:33;11.20;99.90
19968;DHT22;10145;49.152;9.282;2023-04-24T04:12:58;11.20;99.90
19968;DHT22;10145;49.152;9.282;2023-04-24T04:15:24;11.20;99.90
19968;DHT22;10145;49.152;9.282;2023-04-24T04:17:49;11.20;99.90
19968;DHT22;10145;49.152;9.282;2023-04-24T04:20:15;11.20;99.90
19968;DHT22;10145;49.152;9.282;2023-04-24T04:22:40;11.20;99.90
19968;DHT22;10145;49.152;9.282;2023-04-24T04:25:06;11.20;99.90
19968;DHT22;10145;49.152;9.282;2023-04-24T04:27:33;11.10;99.90
19968;DHT22;10145;49.152;9.282;2023-04-24T04:29:59;10.80;99.90
19968;DHT22;10145;49.152;9.282;2023-04-24T04:32:30;10.40;99.90
19968;DHT22;10145;49.152;9.282;2023-04-24T04:34:56;10.10;99.90
19968;DHT22;10145;49.152;9.282;2023-04-24T04:37:22;10.00;99.90
19968;DHT22;10145;49.152;9.282;2023-04-24T04:39:47;9.90;99.90
19968;DHT22;10145;49.152;9.282;2023-04-24T04:42:13;9.70;99.90
19968;DHT22;10145;49.152;9.282;2023-04-24T04:44:38;9.60;99.90
19968;DHT22;10145;49.152;9.282;2023-04-24T04:47:05;9.50;99.90
19968;DHT22;10145;49.152;9.282;2023-04-24T04:49:31;9.40;99.90
19968;DHT22;10145;49.152;9.282;2023-04-24T04:51:57;9.30;99.90
19968;DHT22;10145;49.152;9.282;2023-04-24T04:54:22;9.30;99.90
19968;DHT22;10145;49.152;9.282;2023-04-24T04:56:50;9.20;99.90
19968;DHT22;10145;49.152;9.282;2023-04-24T04:59:15;9.10;99.90
19968;DHT22;10145;49.152;9.282;2023-04-24T05:01:41;9.10;99.90
19968;DHT22;10145;49.152;9.282;2023-04-24T05:04:07;9.10;99.90
19968;DHT22;10145;49.152;9.282;2023-04-24T05:06:32;9.00;99.90
19968;DHT22;10145;49.152;9.282;2023-04-24T05:08:58;9.00;99.90
19968;DHT22;10145;49.152;9.282;2023-04-24T05:11:23;9.00;99.90
19968;DHT22;10145;49.152;9.282;2023-04-24T05:13:49;9.00;99.90
19968;DHT22;10145;49.152;9.282;2023-04-24T05:16:15;9.00;99.90
19968;DHT22;10145;49.152;9.282;2023-04-24T05:18:40;9.00;99.90
19968;DHT22;10145;49.152;9.282;2023-04-24T05:21:06;9.00;99.90
19968;DHT22;10145;49.152;9.282;2023-04-24T05:23:31;9.00;99.90
19968;DHT22;10145;49.152;9.282;2023-04-24T05:25:57;9.00;99.90
19968;DHT22;10145;49.152;9.282;2023-04-24T05:28:22;9.00;99.90
19968;DHT22;10145;49.152;9.282;2023-04-24T05:30:48;9.00;99.90
19968;DHT22;10145;49.152;9.282;2023-04-24T05:33:14;8.90;99.90
19968;DHT22;10145;49.152;9.282;2023-04-24T05:35:40;8.80;99.90
19968;DHT22;10145;49.152;9.282;2023-04-24T05:38:11;8.80;99.90
19968;DHT22;10145;49.152;9.282;2023-04-24T05:40:36;8.90;99.90
19968;DHT22;10145;49.152;9.282;2023-04-24T05:43:02;8.80;99.90
19968;DHT22;10145;49.152;9.282;2023-04-24T05:45:27;8.90;99.90
19968;DHT22;10145;49.152;9.282;2023-04-24T05:47:53;8.90;99.90
19968;DHT22;10145;49.152;9.282;2023-04-24T05:50:19;8.90;99.90
19968;DHT22;10145;49.152;9.282;2023-04-24T05:52:45;8.90;99.90
19968;DHT22;10145;49.152;9.282;2023-04-24T05:55:10;9.00;99.90
19968;DHT22;10145;49.152;9.282;2023-04-24T05:57:36;9.00;99.90
19968;DHT22;10145;49.152;9.282;2023-04-24T06:00:02;9.00;99.90
19968;DHT22;10145;49.152;9.282;2023-04-24T06:02:28;9.00;99.90
19968;DHT22;10145;49.152;9.282;2023-04-24T06:04:57;9.00;99.90
19968;DHT22;10145;49.152;9.282;2023-04-24T06:07:24;9.00;99.90
19968;DHT22;10145;49.152;9.282;2023-04-24T06:09:51;9.10;99.90
19968;DHT22;10145;49.152;9.282;2023-04-24T06:12:17;9.10;99.90
19968;DHT22;10145;49.152;9.282;2023-04-24T06:14:43;9.20;99.90
19968;DHT22;10145;49.152;9.282;2023-04-24T06:17:08;9.40;99.90
19968;DHT22;10145;49.152;9.282;2023-04-24T06:19:34;9.70;99.90
19968;DHT22;10145;49.152;9.282;2023-04-24T06:22:00;9.90;99.90
19968;DHT22;10145;49.152;9.282;2023-04-24T06:24:28;10.00;99.90
19968;DHT22;10145;49.152;9.282;2023-04-24T06:26:54;10.20;99.90
19968;DHT22;10145;49.152;9.282;2023-04-24T06:29:19;10.20;99.90
19968;DHT22;10145;49.152;9.282;2023-04-24T06:31:45;10.20;99.90
19968;DHT22;10145;49.152;9.282;2023-04-24T06:34:10;10.30;99.90
19968;DHT22;10145;49.152;9.282;2023-04-24T06:36:36;10.40;99.90
19968;DHT22;10145;49.152;9.282;2023-04-24T06:39:02;10.50;99.90
19968;DHT22;10145;49.152;9.282;2023-04-24T06:41:28;10.60;99.90
19968;DHT22;10145;49.152;9.282;2023-04-24T06:43:54;10.60;99.90
19968;DHT22;10145;49.152;9.282;2023-04-24T06:46:20;10.60;99.90
19968;DHT22;10145;49.152;9.282;2023-04-24T06:48:49;10.50;99.90
19968;DHT22;10145;49.152;9.282;2023-04-24T06:51:15;10.70;99.90
19968;DHT22;10145;49.152;9.282;2023-04-24T06:53:40;10.90;99.90
19968;DHT22;10145;49.152;9.282;2023-04-24T06:56:06;11.00;99.90
19968;DHT22;10145;49.152;9.282;2023-04-24T06:58:31;11.10;99.90
19968;DHT22;10145;49.152;9.282;2023-04-24T07:00:57;11.30;99.90
19968;DHT22;10145;49.152;9.282;2023-04-24T07:03:22;11.30;99.90
19968;DHT22;10145;49.152;9.282;2023-04-24T07:05:48;11.40;99.90
19968;DHT22;10145;49.152;9.282;2023-04-24T07:08:14;11.70;99.90
19968;DHT22;10145;49.152;9.282;2023-04-24T07:10:42;11.60;99.90
19968;DHT22;10145;49.152;9.282;2023-04-24T07:13:08;11.70;99.90
19968;DHT22;10145;49.152;9.282;2023-04-24T07:15:33;11.80;99.90
19968;DHT22;10145;49.152;9.282;2023-04-24T07:18:00;11.80;99.90
19968;DHT22;10145;49.152;9.282;2023-04-24T07:20:25;11.80;99.90
19968;DHT22;10145;49.152;9.282;2023-04-24T07:22:51;11.70;99.90
19968;DHT22;10145;49.152;9.282;2023-04-24T07:25:19;11.80;99.90
19968;DHT22;10145;49.152;9.282;2023-04-24T07:27:45;11.90;99.90
19968;DHT22;10145;49.152;9.282;2023-04-24T07:30:11;12.30;99.90
19968;DHT22;10145;49.152;9.282;2023-04-24T07:32:36;12.50;99.90
19968;DHT22;10145;49.152;9.282;2023-04-24T07:35:02;12.60;99.90
19968;DHT22;10145;49.152;9.282;2023-04-24T07:37:28;12.60;99.90
19968;DHT22;10145;49.152;9.282;2023-04-24T07:39:54;12.30;99.90
19968;DHT22;10145;49.152;9.282;2023-04-24T07:42:19;12.30;99.90
19968;DHT22;10145;49.152;9.282;2023-04-24T07:44:45;12.40;99.90
19968;DHT22;10145;49.152;9.282;2023-04-24T07:47:13;12.30;99.90
19968;DHT22;10145;49.152;9.282;2023-04-24T07:49:41;12.50;99.90
19968;DHT22;10145;49.152;9.282;2023-04-24T07:52:07;12.50;99.90
19968;DHT22;10145;49.152;9.282;2023-04-24T07:54:32;12.50;99.90
19968;DHT22;10145;49.152;9.282;2023-04-24T07:56:58;12.60;99.90
19968;DHT22;10145;49.152;9.282;2023-04-24T07:59:23;12.60;99.90
19968;DHT22;10145;49.152;9.282;2023-04-24T08:01:49;12.50;99.90
19968;DHT22;10145;49.152;9.282;2023-04-24T08:04:15;12.60;99.90
19968;DHT22;10145;49.152;9.282;2023-04-24T08:06:40;12.60;99.90
19968;DHT22;10145;49.152;9.282;2023-04-24T08:09:06;12.50;99.90
19968;DHT22;10145;49.152;9.282;2023-04-24T08:11:32;12.40;99.90
19968;DHT22;10145;49.152;9.282;2023-04-24T08:13:58;12.20;99.90
19968;DHT22;10145;49.152;9.282;2023-04-24T08:16:23;12.10;99.90
19968;DHT22;10145;49.152;9.282;2023-04-24T08:18:49;12.10;99.90
19968;DHT22;10145;49.152;9.282;2023-04-24T08:21:15;12.10;99.90
19968;DHT22;10145;49.152;9.282;2023-04-24T08:23:42;12.20;99.90
19968;DHT22;10145;49.152;9.282;2023-04-24T08:26:08;12.40;99.90
19968;DHT22;10145;49.152;9.282;2023-04-24T08:28:34;12.60;99.90
19968;DHT22;10145;49.152;9.282;2023-04-24T08:30:59;12.60;99.90
19968;DHT22;10145;49.152;9.282;2023-04-24T08:33:25;12.60;99.90
19968;DHT22;10145;49.152;9.282;2023-04-24T08:35:51;12.70;99.90
19968;DHT22;10145;49.152;9.282;2023-04-24T08:38:17;12.70;99.90
19968;DHT22;10145;49.152;9.282;2023-04-24T08:40:43;12.80;99.90
19968;DHT22;10145;49.152;9.282;2023-04-24T08:43:11;12.90;99.90
19968;DHT22;10145;49.152;9.282;2023-04-24T08:45:37;12.90;99.90
19968;DHT22;10145;49.152;9.282;2023-04-24T08:48:04;12.90;99.90
19968;DHT22;10145;49.152;9.282;2023-04-24T08:50:32;12.50;99.90
19968;DHT22;10145;49.152;9.282;2023-04-24T08:52:57;12.30;99.90
19968;DHT22;10145;49.152;9.282;2023-04-24T08:55:24;12.10;99.90
19968;DHT22;10145;49.152;9.282;2023-04-24T08:57:51;11.60;99.90
19968;DHT22;10145;49.152;9.282;2023-04-24T09:00:19;11.60;99.90
19968;DHT22;10145;49.152;9.282;2023-04-24T09:02:47;11.60;99.90
19968;DHT22;10145;49.152;9.282;2023-04-24T09:05:14;11.70;99.90
19968;DHT22;10145;49.152;9.282;2023-04-24T09:07:44;12.00;99.90
19968;DHT22;10145;49.152;9.282;2023-04-24T09:10:11;12.10;99.90
19968;DHT22;10145;49.152;9.282;2023-04-24T09:12:37;12.30;99.90
19968;DHT22;10145;49.152;9.282;2023-04-24T09:15:03;12.50;99.90
19968;DHT22;10145;49.152;9.282;2023-04-24T09:17:30;12.50;99.90
19968;DHT22;10145;49.152;9.282;2023-04-24T09:19:56;12.70;99.90
19968;DHT22;10145;49.152;9.282;2023-04-24T09:22:22;12.50;99.90
19968;DHT22;10145;49.152;9.282;2023-04-24T09:24:48;12.40;99.90
19968;DHT22;10145;49.152;9.282;2023-04-24T09:27:13;12.40;99.90
19968;DHT22;10145;49.152;9.282;2023-04-24T09:29:56;12.70;99.90
19968;DHT22;10145;49.152;9.282;2023-04-24T09:32:22;13.30;99.90
19968;DHT22;10145;49.152;9.282;2023-04-24T09:35:04;13.80;99.90
19968;DHT22;10145;49.152;9.282;2023-04-24T09:37:30;13.80;99.60
19968;DHT22;10145;49.152;9.282;2023-04-24T09:40:28;13.70;99.90
19968;DHT22;10145;49.152;9.282;2023-04-24T09:42:56;13.50;99.30
19968;DHT22;10145;49.152;9.282;2023-04-24T09:45:28;13.40;99.70
19968;DHT22;10145;49.152;9.282;2023-04-24T09:47:54;13.30;99.60
19968;DHT22;10145;49.152;9.282;2023-04-24T09:50:20;13.80;99.90
19968;DHT22;10145;49.152;9.282;2023-04-24T09:52:58;14.00;97.50
19968;DHT22;10145;49.152;9.282;2023-04-24T09:55:24;14.10;97.90
19968;DHT22;10145;49.152;9.282;2023-04-24T09:57:52;13.80;97.60
19968;DHT22;10145;49.152;9.282;2023-04-24T10:00:23;13.60;97.70
19968;DHT22;10145;49.152;9.282;2023-04-24T10:02:55;13.70;98.80
19968;DHT22;10145;49.152;9.282;2023-04-24T10:05:29;13.90;98.40
19968;DHT22;10145;49.152;9.282;2023-04-24T10:10:32;13.50;97.50
19968;DHT22;10145;49.152;9.282;2023-04-24T10:12:59;13.30;97.40
19968;DHT22;10145;49.152;9.282;2023-04-24T10:15:26;13.10;97.00
19968;DHT22;10145;49.152;9.282;2023-04-24T10:17:52;13.10;97.90
19968;DHT22;10145;49.152;9.282;2023-04-24T10:20:23;12.80;98.40
19968;DHT22;10145;49.152;9.282;2023-04-24T10:22:50;12.40;99.50
19968;DHT22;10145;49.152;9.282;2023-04-24T10:25:20;12.30;99.90
19968;DHT22;10145;49.152;9.282;2023-04-24T10:27:48;12.10;99.90
19968;DHT22;10145;49.152;9.282;2023-04-24T10:30:14;12.00;99.90
19968;DHT22;10145;49.152;9.282;2023-04-24T10:32:40;11.90;99.90
19968;DHT22;10145;49.152;9.282;2023-04-24T10:35:13;12.20;99.90
19968;DHT22;10145;49.152;9.282;2023-04-24T10:37:42;12.40;99.90
19968;DHT22;10145;49.152;9.282;2023-04-24T10:40:11;12.60;99.80
19968;DHT22;10145;49.152;9.282;2023-04-24T10:42:40;12.70;99.60
19968;DHT22;10145;49.152;9.282;2023-04-24T10:45:19;12.60;98.60
19968;DHT22;10145;49.152;9.282;2023-04-24T10:48:04;12.70;98.90
19968;DHT22;10145;49.152;9.282;2023-04-24T10:53:21;13.40;97.50
19968;DHT22;10145;49.152;9.282;2023-04-24T10:58:39;14.20;97.10
19968;DHT22;10145;49.152;9.282;2023-04-24T11:01:05;14.60;94.50
19968;DHT22;10145;49.152;9.282;2023-04-24T11:03:33;14.90;95.00
19968;DHT22;10145;49.152;9.282;2023-04-24T11:06:05;14.80;94.70
19968;DHT22;10145;49.152;9.282;2023-04-24T11:08:39;14.90;93.60
19968;DHT22;10145;49.152;9.282;2023-04-24T11:11:16;14.40;93.60
19968;DHT22;10145;49.152;9.282;2023-04-24T11:16:30;13.80;95.30
19968;DHT22;10145;49.152;9.282;2023-04-24T11:22:18;13.50;95.30
19968;DHT22;10145;49.152;9.282;2023-04-24T11:27:18;12.90;96.30
19968;DHT22;10145;49.152;9.282;2023-04-24T11:29:58;12.90;96.50
19968;DHT22;10145;49.152;9.282;2023-04-24T11:32:29;12.80;96.00
19968;DHT22;10145;49.152;9.282;2023-04-24T11:35:18;12.60;96.40
19968;DHT22;10145;49.152;9.282;2023-04-24T11:37:48;12.40;97.00
19968;DHT22;10145;49.152;9.282;2023-04-24T11:40:16;12.10;99.80
19968;DHT22;10145;49.152;9.282;2023-04-24T11:42:46;11.80;99.90
19968;DHT22;10145;49.152;9.282;2023-04-24T11:45:23;11.30;99.90
19968;DHT22;10145;49.152;9.282;2023-04-24T11:47:49;10.90;99.90
19968;DHT22;10145;49.152;9.282;2023-04-24T11:50:17;11.00;99.90
19968;DHT22;10145;49.152;9.282;2023-04-24T11:52:44;11.20;99.90
19968;DHT22;10145;49.152;9.282;2023-04-24T11:57:40;11.70;99.90
19968;DHT22;10145;49.152;9.282;2023-04-24T12:00:16;11.90;99.90
19968;DHT22;10145;49.152;9.282;2023-04-24T12:02:42;12.10;99.90
19968;DHT22;10145;49.152;9.282;2023-04-24T12:05:08;12.30;99.90
19968;DHT22;10145;49.152;9.282;2023-04-24T12:07:41;12.60;99.90
19968;DHT22;10145;49.152;9.282;2023-04-24T12:10:10;12.80;99.90
19968;DHT22;10145;49.152;9.282;2023-04-24T12:12:36;12.80;99.90
19968;DHT22;10145;49.152;9.282;2023-04-24T12:15:06;12.90;99.90
19968;DHT22;10145;49.152;9.282;2023-04-24T12:17:33;12.70;99.90
19968;DHT22;10145;49.152;9.282;2023-04-24T12:20:01;12.60;99.90
19968;DHT22;10145;49.152;9.282;2023-04-24T12:22:28;12.50;99.90
19968;DHT22;10145;49.152;9.282;2023-04-24T12:24:58;12.70;99.90
19968;DHT22;10145;49.152;9.282;2023-04-24T12:27:25;12.90;99.90
19968;DHT22;10145;49.152;9.282;2023-04-24T12:29:58;12.80;99.90
19968;DHT22;10145;49.152;9.282;2023-04-24T12:32:24;12.60;99.90
19968;DHT22;10145;49.152;9.282;2023-04-24T12:34:54;12.60;99.90
19968;DHT22;10145;49.152;9.282;2023-04-24T12:37:20;12.50;99.90
19968;DHT22;10145;49.152;9.282;2023-04-24T12:42:28;12.60;99.90
19968;DHT22;10145;49.152;9.282;2023-04-24T12:45:02;12.60;99.90
19968;DHT22;10145;49.152;9.282;2023-04-24T12:47:29;12.70;99.90
19968;DHT22;10145;49.152;9.282;2023-04-24T12:49:54;12.90;99.90
19968;DHT22;10145;49.152;9.282;2023-04-24T12:52:24;13.20;99.90
19968;DHT22;10145;49.152;9.282;2023-04-24T12:54:53;13.50;99.90
19968;DHT22;10145;49.152;9.282;2023-04-24T12:57:18;13.40;99.50
19968;DHT22;10145;49.152;9.282;2023-04-24T12:59:44;13.30;99.60
19968;DHT22;10145;49.152;9.282;2023-04-24T13:02:11;13.60;99.60
19968;DHT22;10145;49.152;9.282;2023-04-24T13:04:37;13.70;99.50
19968;DHT22;10145;49.152;9.282;2023-04-24T13:07:02;14.60;99.90
19968;DHT22;10145;49.152;9.282;2023-04-24T13:09:28;15.60;99.70
19968;DHT22;10145;49.152;9.282;2023-04-24T13:11:54;16.30;95.50
19968;DHT22;10145;49.152;9.282;2023-04-24T13:14:20;16.20;96.20
19968;DHT22;10145;49.152;9.282;2023-04-24T13:16:46;16.30;95.00
19968;DHT22;10145;49.152;9.282;2023-04-24T13:19:11;16.40;95.00
19968;DHT22;10145;49.152;9.282;2023-04-24T13:21:37;16.40;95.30
19968;DHT22;10145;49.152;9.282;2023-04-24T13:24:02;16.00;93.70
19968;DHT22;10145;49.152;9.282;2023-04-24T13:26:30;15.00;94.40
19968;DHT22;10145;49.152;9.282;2023-04-24T13:28:55;14.80;95.20
19968;DHT22;10145;49.152;9.282;2023-04-24T13:31:21;14.40;96.60
19968;DHT22;10145;49.152;9.282;2023-04-24T13:33:47;13.90;96.90
19968;DHT22;10145;49.152;9.282;2023-04-24T13:36:13;13.90;97.30
19968;DHT22;10145;49.152;9.282;2023-04-24T13:38:38;13.70;97.70
19968;DHT22;10145;49.152;9.282;2023-04-24T13:41:04;13.90;97.40
19968;DHT22;10145;49.152;9.282;2023-04-24T13:43:30;14.30;96.80
19968;DHT22;10145;49.152;9.282;2023-04-24T13:45:55;14.20;95.80
19968;DHT22;10145;49.152;9.282;2023-04-24T13:48:21;14.00;96.60
19968;DHT22;10145;49.152;9.282;2023-04-24T13:50:47;14.10;96.60
19968;DHT22;10145;49.152;9.282;2023-04-24T13:53:13;14.10;96.40
19968;DHT22;10145;49.152;9.282;2023-04-24T13:55:39;14.10;97.80
19968;DHT22;10145;49.152;9.282;2023-04-24T13:58:05;13.90;97.00
19968;DHT22;10145;49.152;9.282;2023-04-24T14:00:31;14.00;96.70
19968;DHT22;10145;49.152;9.282;2023-04-24T14:02:57;13.90;95.90
19968;DHT22;10145;49.152;9.282;2023-04-24T14:05:22;13.80;95.90
19968;DHT22;10145;49.152;9.282;2023-04-24T14:07:48;13.70;95.20
19968;DHT22;10145;49.152;9.282;2023-04-24T14:10:14;13.80;96.10
19968;DHT22;10145;49.152;9.282;2023-04-24T14:12:40;14.10;96.30
19968;DHT22;10145;49.152;9.282;2023-04-24T14:15:06;15.20;94.30
19968;DHT22;10145;49.152;9.282;2023-04-24T14:17:31;15.40;94.00
19968;DHT22;10145;49.152;9.282;2023-04-24T14:19:57;15.50;94.00
19968;DHT22;10145;49.152;9.282;2023-04-24T14:22:25;15.50;93.40
19968;DHT22;10145;49.152;9.282;2023-04-24T14:24:50;15.40;92.20
19968;DHT22;10145;49.152;9.282;2023-04-24T14:27:16;15.50;93.00
19968;DHT22;10145;49.152;9.282;2023-04-24T14:29:41;15.70;91.90
19968;DHT22;10145;49.152;9.282;2023-04-24T14:32:08;15.50;92.10
19968;DHT22;10145;49.152;9.282;2023-04-24T14:34:34;16.10;91.30
19968;DHT22;10145;49.152;9.282;2023-04-24T14:37:00;16.40;91.50
19968;DHT22;10145;49.152;9.282;2023-04-24T14:39:25;16.40;90.30
19968;DHT22;10145;49.152;9.282;2023-04-24T14:41:51;15.70;91.10
19968;DHT22;10145;49.152;9.282;2023-04-24T14:44:16;15.60;91.50
19968;DHT22;10145;49.152;9.282;2023-04-24T14:46:42;15.60;91.70
19968;DHT22;10145;49.152;9.282;2023-04-24T14:49:08;16.10;91.00
19968;DHT22;10145;49.152;9.282;2023-04-24T14:51:35;15.70;90.80
19968;DHT22;10145;49.152;9.282;2023-04-24T14:54:01;15.00;92.60
19968;DHT22;10145;49.152;9.282;2023-04-24T14:56:26;14.70;92.90
19968;DHT22;10145;49.152;9.282;2023-04-24T14:58:52;14.50;92.80
19968;DHT22;10145;49.152;9.282;2023-04-24T15:01:18;14.40;93.80
19968;DHT22;10145;49.152;9.282;2023-04-24T15:03:43;14.40;93.50
19968;DHT22;10145;49.152;9.282;2023-04-24T15:06:09;14.30;92.90
19968;DHT22;10145;49.152;9.282;2023-04-24T15:08:34;14.20;92.80
19968;DHT22;10145;49.152;9.282;2023-04-24T15:11:01;14.30;92.80
19968;DHT22;10145;49.152;9.282;2023-04-24T15:13:26;14.30;93.90
19968;DHT22;10145;49.152;9.282;2023-04-24T15:15:52;14.40;94.00
19968;DHT22;10145;49.152;9.282;2023-04-24T15:18:17;14.80;93.60
19968;DHT22;10145;49.152;9.282;2023-04-24T15:20:43;16.10;91.70
19968;DHT22;10145;49.152;9.282;2023-04-24T15:23:09;16.80;90.50
19968;DHT22;10145;49.152;9.282;2023-04-24T15:25:36;16.80;90.20
19968;DHT22;10145;49.152;9.282;2023-04-24T15:28:02;16.50;90.30
19968;DHT22;10145;49.152;9.282;2023-04-24T15:30:28;15.80;90.80
19968;DHT22;10145;49.152;9.282;2023-04-24T15:32:54;15.80;91.90
19968;DHT22;10145;49.152;9.282;2023-04-24T15:35:20;15.80;92.90
19968;DHT22;10145;49.152;9.282;2023-04-24T15:37:45;15.60;91.50
19968;DHT22;10145;49.152;9.282;2023-04-24T15:40:13;15.20;92.50
19968;DHT22;10145;49.152;9.282;2023-04-24T15:42:41;15.00;93.10
19968;DHT22;10145;49.152;9.282;2023-04-24T15:45:08;14.60;92.80
19968;DHT22;10145;49.152;9.282;2023-04-24T15:47:34;14.30;93.70
19968;DHT22;10145;49.152;9.282;2023-04-24T15:50:00;14.10;94.80
19968;DHT22;10145;49.152;9.282;2023-04-24T15:52:26;13.90;94.50